createdAt,value
2017-08-03T00:01:24.537Z,22.80
2017-08-03T00:03:51.387Z,22.80
2017-08-03T00:06:18.170Z,22.80
2017-08-03T00:08:44.670Z,22.80
2017-08-03T00:11:12.616Z,22.60
2017-08-03T00:13:38.855Z,22.60
2017-08-03T00:16:05.651Z,22.60
2017-08-03T00:18:32.138Z,22.50
2017-08-03T00:20:58.408Z,22.40
2017-08-03T00:23:25.651Z,22.40
2017-08-03T00:25:52.894Z,22.40
2017-08-03T00:28:19.132Z,22.30
2017-08-03T00:30:46.331Z,22.40
2017-08-03T00:33:13.366Z,22.30
2017-08-03T00:35:40.664Z,22.30
2017-08-03T00:38:07.392Z,22.20
2017-08-03T00:40:35.052Z,22.10
2017-08-03T00:43:02.046Z,22.20
2017-08-03T00:45:28.437Z,22.20
2017-08-03T00:47:55.424Z,22.00
2017-08-03T00:50:21.669Z,22.10
2017-08-03T00:52:48.741Z,22.00
2017-08-03T00:55:15.003Z,22.00
2017-08-03T00:57:41.558Z,22.10
2017-08-03T01:00:08.144Z,22.10
2017-08-03T01:02:34.410Z,21.90
2017-08-03T01:05:00.679Z,21.80
2017-08-03T01:07:27.209Z,21.80
2017-08-03T01:09:54.424Z,21.80
2017-08-03T01:12:20.926Z,21.80
2017-08-03T01:14:47.922Z,21.90
2017-08-03T01:17:14.209Z,21.90
2017-08-03T01:19:41.208Z,21.70
2017-08-03T01:22:07.471Z,21.70
2017-08-03T01:24:34.318Z,21.60
2017-08-03T01:27:01.249Z,21.50
2017-08-03T01:29:27.497Z,21.40
2017-08-03T01:31:54.526Z,21.50
2017-08-03T01:34:21.826Z,21.50
2017-08-03T01:36:48.779Z,21.50
2017-08-03T01:39:15.070Z,21.50
2017-08-03T01:41:42.288Z,21.50
2017-08-03T01:44:08.784Z,21.50
2017-08-03T01:46:36.809Z,21.50
2017-08-03T01:49:03.692Z,21.50
2017-08-03T01:51:30.659Z,21.50
2017-08-03T01:53:57.131Z,21.50
2017-08-03T01:56:24.117Z,21.40
2017-08-03T01:58:53.009Z,21.30
2017-08-03T02:01:20.145Z,21.30
2017-08-03T02:03:46.997Z,21.30
2017-08-03T02:06:14.264Z,21.30
2017-08-03T02:08:40.628Z,21.30
2017-08-03T02:11:07.312Z,21.20
2017-08-03T02:13:33.633Z,21.20
2017-08-03T02:16:00.556Z,21.20
2017-08-03T02:18:26.801Z,21.20
2017-08-03T02:20:54.344Z,21.20
2017-08-03T02:23:20.620Z,21.10
2017-08-03T02:25:46.936Z,21.10
2017-08-03T02:28:13.873Z,21.10
2017-08-03T02:30:41.226Z,21.10
2017-08-03T02:33:09.350Z,21.00
2017-08-03T02:35:35.587Z,21.00
2017-08-03T02:38:02.115Z,21.00
2017-08-03T02:40:28.351Z,21.00
2017-08-03T02:42:55.746Z,20.90
2017-08-03T02:45:22.017Z,20.90
2017-08-03T02:47:48.263Z,20.80
2017-08-03T02:50:14.508Z,20.70
2017-08-03T02:52:40.781Z,20.70
2017-08-03T02:55:07.951Z,20.70
2017-08-03T02:57:35.742Z,20.80
2017-08-03T03:00:03.414Z,20.90
2017-08-03T03:02:29.671Z,20.80
2017-08-03T03:04:55.941Z,20.70
2017-08-03T03:07:23.235Z,20.70
2017-08-03T03:09:51.589Z,20.50
2017-08-03T03:12:17.859Z,20.50
2017-08-03T03:14:44.111Z,20.40
2017-08-03T03:17:11.747Z,20.40
2017-08-03T03:19:39.789Z,20.40
2017-08-03T03:22:08.266Z,20.40
2017-08-03T03:24:34.496Z,20.40
2017-08-03T03:27:01.221Z,20.40
2017-08-03T03:29:27.499Z,20.40
2017-08-03T03:41:38.843Z,20.30
2017-08-03T03:44:06.292Z,20.20
2017-08-03T03:46:32.559Z,20.10
2017-08-03T03:48:58.814Z,20.10
2017-08-03T03:51:25.114Z,20.20
2017-08-03T03:53:52.068Z,20.30
2017-08-03T03:56:18.303Z,20.20
2017-08-03T03:58:44.568Z,20.20
2017-08-03T04:01:10.843Z,20.20
2017-08-03T04:03:37.998Z,20.20
2017-08-03T04:06:04.847Z,20.20
2017-08-03T04:08:33.114Z,20.30
2017-08-03T04:11:00.358Z,20.30
2017-08-03T04:13:26.607Z,20.30
2017-08-03T04:15:54.842Z,20.30
2017-08-03T04:18:21.784Z,20.30
2017-08-03T04:20:48.053Z,20.30
2017-08-03T04:23:14.343Z,20.30
2017-08-03T04:25:41.185Z,20.40
2017-08-03T04:28:08.290Z,20.70
2017-08-03T04:30:34.583Z,20.70
2017-08-03T04:33:02.277Z,20.80
2017-08-03T04:35:29.338Z,21.00
2017-08-03T04:37:55.598Z,21.00
2017-08-03T04:40:21.870Z,21.10
2017-08-03T04:42:48.884Z,21.20
2017-08-03T04:45:15.233Z,21.40
2017-08-03T04:47:42.494Z,21.50
2017-08-03T04:50:09.040Z,21.60
2017-08-03T04:52:36.306Z,21.60
2017-08-03T04:55:02.588Z,21.80
2017-08-03T04:57:28.873Z,21.90
2017-08-03T04:59:55.758Z,22.10
2017-08-03T05:02:22.384Z,22.10
2017-08-03T05:04:50.138Z,22.30
2017-08-03T05:07:16.398Z,22.30
2017-08-03T05:09:42.656Z,22.40
2017-08-03T05:12:08.887Z,22.50
2017-08-03T05:14:35.178Z,22.70
2017-08-03T05:17:01.947Z,22.80
2017-08-03T05:19:29.109Z,23.00
2017-08-03T05:21:56.357Z,23.40
2017-08-03T05:24:22.673Z,23.40
2017-08-03T05:26:50.159Z,23.50
2017-08-03T05:29:17.067Z,23.50
2017-08-03T05:31:43.967Z,23.50
2017-08-03T05:34:11.499Z,23.80
2017-08-03T05:36:38.561Z,24.10
2017-08-03T05:39:05.777Z,24.50
2017-08-03T05:41:33.506Z,24.90
2017-08-03T05:44:00.774Z,24.90
2017-08-03T05:46:27.066Z,25.30
2017-08-03T05:48:54.040Z,25.80
2017-08-03T05:51:20.952Z,25.80
2017-08-03T05:53:47.980Z,25.80
2017-08-03T05:56:14.247Z,25.80
2017-08-03T05:58:41.104Z,26.00
2017-08-03T06:01:07.446Z,26.30
2017-08-03T06:03:34.364Z,26.60
2017-08-03T06:06:00.659Z,27.00
2017-08-03T06:08:26.904Z,27.30
2017-08-03T06:10:54.303Z,27.90
2017-08-03T06:13:22.319Z,28.20
2017-08-03T06:15:49.550Z,28.30
2017-08-03T06:18:15.867Z,28.30
2017-08-03T06:20:43.499Z,28.40
2017-08-03T06:23:10.286Z,28.50
2017-08-03T06:25:37.186Z,28.80
2017-08-03T06:28:03.535Z,29.10
2017-08-03T06:30:29.801Z,29.50
2017-08-03T06:32:57.028Z,29.80
2017-08-03T06:35:23.783Z,29.90
2017-08-03T06:37:51.817Z,29.50
2017-08-03T06:40:18.779Z,29.50
2017-08-03T06:42:45.799Z,28.80
2017-08-03T06:45:12.075Z,28.80
2017-08-03T06:47:38.311Z,28.50
2017-08-03T06:50:04.554Z,28.10
2017-08-03T06:52:31.585Z,27.60
2017-08-03T06:54:57.826Z,27.60
2017-08-03T06:57:25.833Z,27.10
2017-08-03T06:59:52.104Z,27.00
2017-08-03T07:02:19.368Z,26.80
2017-08-03T07:04:45.876Z,26.60
2017-08-03T07:07:12.145Z,26.40
2017-08-03T07:09:40.145Z,26.00
2017-08-03T07:12:07.077Z,25.90
2017-08-03T07:14:33.328Z,25.90
2017-08-03T07:17:00.589Z,25.90
2017-08-03T07:19:27.561Z,26.00
2017-08-03T07:21:54.103Z,26.10
2017-08-03T07:24:20.391Z,26.10
2017-08-03T07:26:47.615Z,26.10
2017-08-03T07:29:13.870Z,26.10
2017-08-03T07:31:40.156Z,26.10
2017-08-03T07:34:06.424Z,26.20
2017-08-03T07:36:32.684Z,26.30
2017-08-03T07:38:59.609Z,26.50
2017-08-03T07:41:27.400Z,26.80
2017-08-03T07:43:53.682Z,27.30
2017-08-03T07:46:21.116Z,27.80
2017-08-03T07:48:47.529Z,28.20
2017-08-03T07:51:14.543Z,28.80
2017-08-03T07:53:40.987Z,28.80
2017-08-03T07:56:07.263Z,29.10
2017-08-03T07:58:33.941Z,29.30
2017-08-03T08:01:00.273Z,29.50
2017-08-03T08:03:27.109Z,29.80
2017-08-03T08:05:53.366Z,29.70
2017-08-03T08:08:20.464Z,29.60
2017-08-03T08:10:47.839Z,29.80
2017-08-03T08:13:14.177Z,29.90
2017-08-03T08:15:40.506Z,30.10
2017-08-03T08:18:06.785Z,30.40
2017-08-03T08:20:33.692Z,30.60
2017-08-03T08:22:59.983Z,30.70
2017-08-03T08:25:27.975Z,30.70
2017-08-03T08:47:25.816Z,30.80
2017-08-03T08:59:38.167Z,31.10
2017-08-03T09:02:04.463Z,31.00
2017-08-03T09:04:30.816Z,31.30
2017-08-03T09:06:57.655Z,31.60
2017-08-03T09:09:23.935Z,31.80
2017-08-03T09:11:51.171Z,31.90
2017-08-03T09:14:18.447Z,32.00
2017-08-03T09:16:45.968Z,32.10
2017-08-03T09:19:12.986Z,32.00
2017-08-03T09:21:39.420Z,32.00
2017-08-03T09:24:05.887Z,32.00
2017-08-03T09:26:32.181Z,31.60
2017-08-03T09:28:58.468Z,31.50
2017-08-03T09:31:26.074Z,31.70
2017-08-03T09:33:52.589Z,31.80
2017-08-03T09:36:19.735Z,31.70
2017-08-03T09:38:47.853Z,31.50
2017-08-03T09:41:15.543Z,31.90
2017-08-03T09:43:41.812Z,31.90
2017-08-03T09:46:08.064Z,31.70
2017-08-03T09:48:34.342Z,31.60
2017-08-03T09:51:00.616Z,31.70
2017-08-03T09:53:27.707Z,31.70
2017-08-03T09:55:54.734Z,31.60
2017-08-03T09:58:22.689Z,31.50
2017-08-03T10:00:49.738Z,31.50
2017-08-03T10:03:17.019Z,31.60
2017-08-03T10:05:44.810Z,32.00
2017-08-03T10:08:11.084Z,32.20
2017-08-03T10:10:38.406Z,32.30
2017-08-03T10:13:05.281Z,32.20
2017-08-03T10:15:31.774Z,32.20
2017-08-03T10:17:58.711Z,32.20
2017-08-03T10:20:25.831Z,32.00
2017-08-03T10:22:53.763Z,32.00
2017-08-03T10:25:20.795Z,31.70
2017-08-03T10:27:47.349Z,31.70
2017-08-03T10:30:13.622Z,31.40
2017-08-03T10:32:41.072Z,31.50
2017-08-03T10:35:07.892Z,31.80
2017-08-03T10:37:35.876Z,32.20
2017-08-03T10:40:03.446Z,32.00
2017-08-03T10:42:29.891Z,32.00
2017-08-03T10:44:57.236Z,31.90
2017-08-03T10:47:24.690Z,31.80
2017-08-03T10:49:52.916Z,31.80
2017-08-03T10:52:20.152Z,32.00
2017-08-03T10:54:48.177Z,32.00
2017-08-03T10:57:15.037Z,32.00
2017-08-03T10:59:42.262Z,32.00
2017-08-03T11:02:09.267Z,31.80
2017-08-03T11:04:35.787Z,31.70
2017-08-03T11:07:02.668Z,31.60
2017-08-03T11:09:29.554Z,31.40
2017-08-03T11:11:56.621Z,31.30
2017-08-03T11:14:22.885Z,31.30
2017-08-03T11:16:49.936Z,31.30
2017-08-03T11:19:17.799Z,31.20
2017-08-03T11:21:44.362Z,31.20
2017-08-03T11:24:11.132Z,31.10
2017-08-03T11:26:38.209Z,31.00
2017-08-03T11:29:05.500Z,31.00
2017-08-03T11:31:35.328Z,30.50
2017-08-03T11:34:01.590Z,30.50
2017-08-03T11:36:27.868Z,30.40
2017-08-03T11:38:54.903Z,30.20
2017-08-03T11:41:21.972Z,30.20
2017-08-03T11:43:48.862Z,30.10
2017-08-03T11:46:17.149Z,30.10
2017-08-03T11:48:45.393Z,30.10
2017-08-03T11:51:11.962Z,29.90
2017-08-03T11:53:38.311Z,29.90
2017-08-03T11:56:05.334Z,29.80
2017-08-03T11:58:32.714Z,29.80
2017-08-03T12:01:00.736Z,29.60
2017-08-03T12:03:27.044Z,29.60
2017-08-03T12:05:53.322Z,29.50
2017-08-03T12:08:19.625Z,29.40
2017-08-03T12:10:46.522Z,29.40
2017-08-03T12:13:13.420Z,29.40
2017-08-03T12:15:40.034Z,29.50
2017-08-03T12:18:08.308Z,29.50
2017-08-03T12:20:34.655Z,29.60
2017-08-03T12:23:00.957Z,29.60
2017-08-03T12:25:27.294Z,29.70
2017-08-03T12:27:53.544Z,29.70
2017-08-03T12:30:20.420Z,29.80
2017-08-03T12:32:47.212Z,29.80
2017-08-03T12:35:14.000Z,29.90
2017-08-03T12:37:40.746Z,29.90
2017-08-03T12:40:08.816Z,30.10
2017-08-03T12:42:35.072Z,30.10
2017-08-03T12:45:02.124Z,30.20
2017-08-03T12:47:28.921Z,30.20
2017-08-03T12:49:56.187Z,30.40
2017-08-03T12:52:22.901Z,30.50
2017-08-03T12:54:49.897Z,30.60
2017-08-03T12:57:16.418Z,30.80
2017-08-03T12:59:43.821Z,30.80
2017-08-03T13:02:11.523Z,31.20
2017-08-03T13:04:38.007Z,31.10
2017-08-03T13:07:04.287Z,31.10
2017-08-03T13:09:31.011Z,31.10
2017-08-03T13:11:57.294Z,31.20
2017-08-03T13:14:23.560Z,31.30
2017-08-03T13:16:50.471Z,31.40
2017-08-03T13:19:16.769Z,31.40
2017-08-03T13:21:43.979Z,31.20
2017-08-03T13:24:10.886Z,31.20
2017-08-03T13:26:37.497Z,31.20
2017-08-03T13:29:05.046Z,31.30
2017-08-03T13:31:31.344Z,31.40
2017-08-03T13:33:57.640Z,31.60
2017-08-03T13:36:23.931Z,31.50
2017-08-03T13:38:50.919Z,31.60
2017-08-03T13:41:18.038Z,31.60
2017-08-03T13:43:44.337Z,31.60
2017-08-03T13:46:11.548Z,31.60
2017-08-03T13:48:37.847Z,31.60
2017-08-03T13:51:04.200Z,31.60
2017-08-03T13:53:31.799Z,31.70
2017-08-03T13:55:58.088Z,31.70
2017-08-03T13:58:25.397Z,31.90
2017-08-03T14:00:51.696Z,31.90
2017-08-03T14:03:18.044Z,32.00
2017-08-03T14:05:44.955Z,32.10
2017-08-03T14:08:11.939Z,32.00
2017-08-03T14:10:38.235Z,31.80
2017-08-03T14:13:04.509Z,31.70
2017-08-03T14:15:31.010Z,31.50
2017-08-03T14:17:57.359Z,31.50
2017-08-03T14:20:23.676Z,31.50
2017-08-03T14:22:49.929Z,31.60
2017-08-03T14:25:16.203Z,31.70
2017-08-03T14:27:44.202Z,31.80
2017-08-03T14:30:10.471Z,31.80
2017-08-03T14:32:36.749Z,31.70
2017-08-03T14:35:03.661Z,31.70
2017-08-03T14:37:29.971Z,31.60
2017-08-03T14:39:56.473Z,31.60
2017-08-03T14:42:22.750Z,31.60
2017-08-03T14:44:50.710Z,31.50
2017-08-03T14:47:16.995Z,31.50
2017-08-03T14:49:43.246Z,31.50
2017-08-03T14:52:09.493Z,31.60
2017-08-03T14:54:36.314Z,31.60
2017-08-03T14:57:03.548Z,31.60
2017-08-03T14:59:29.846Z,31.60
2017-08-03T15:01:56.474Z,31.50
2017-08-03T15:04:23.486Z,31.60
2017-08-03T15:06:49.982Z,31.60
2017-08-03T15:09:17.303Z,31.40
2017-08-03T15:11:45.342Z,31.20
2017-08-03T15:14:11.763Z,31.20
2017-08-03T15:16:39.080Z,31.00
2017-08-03T15:19:05.929Z,31.00
2017-08-03T15:21:32.218Z,31.00
2017-08-03T15:23:59.281Z,30.80
2017-08-03T15:26:27.796Z,30.80
2017-08-03T15:28:54.770Z,30.80
2017-08-03T15:31:21.121Z,30.80
2017-08-03T15:33:47.380Z,30.70
2017-08-03T15:36:13.672Z,30.70
2017-08-03T15:38:40.592Z,30.60
2017-08-03T15:41:07.604Z,30.60
2017-08-03T15:43:33.863Z,30.50
2017-08-03T15:46:00.151Z,30.50
2017-08-03T15:48:27.037Z,30.50
2017-08-03T15:50:53.404Z,30.40
2017-08-03T15:53:21.272Z,30.40
2017-08-03T15:55:48.143Z,30.30
2017-08-03T15:58:14.958Z,30.20
2017-08-03T16:00:41.218Z,30.20
2017-08-03T16:03:08.622Z,30.20
2017-08-03T16:05:34.935Z,30.10
2017-08-03T16:08:01.784Z,30.00
2017-08-03T16:10:28.049Z,29.80
2017-08-03T16:12:55.390Z,29.70
2017-08-03T16:15:22.434Z,29.80
2017-08-03T16:17:48.736Z,29.70
2017-08-03T16:20:15.060Z,29.90
2017-08-03T16:22:41.940Z,29.90
2017-08-03T16:25:08.628Z,29.90
2017-08-03T16:27:35.472Z,30.00
2017-08-03T16:30:01.782Z,30.10
2017-08-03T16:32:28.482Z,30.10
2017-08-03T16:34:54.730Z,30.10
2017-08-03T16:37:21.823Z,30.00
2017-08-03T16:39:48.638Z,30.00
2017-08-03T16:42:15.201Z,30.00
2017-08-03T16:44:42.321Z,29.90
2017-08-03T16:47:09.239Z,29.80
2017-08-03T16:49:35.513Z,29.70
2017-08-03T16:52:02.824Z,29.80
2017-08-03T16:54:29.347Z,29.80
2017-08-03T16:56:56.209Z,29.80
2017-08-03T16:59:23.191Z,29.70
2017-08-03T17:01:50.160Z,29.70
2017-08-03T17:04:16.442Z,29.80
2017-08-03T17:06:43.285Z,29.70
2017-08-03T17:09:10.307Z,29.70
2017-08-03T17:11:37.142Z,29.70
2017-08-03T17:14:03.980Z,29.60
2017-08-03T17:16:31.228Z,29.60
2017-08-03T17:18:58.494Z,29.50
2017-08-03T17:21:25.183Z,29.40
2017-08-03T17:23:52.606Z,29.30
2017-08-03T17:26:20.297Z,29.10
2017-08-03T17:28:48.340Z,29.00
2017-08-03T17:31:15.933Z,28.90
2017-08-03T17:33:42.221Z,28.90
2017-08-03T17:36:09.225Z,28.90
2017-08-03T17:38:35.510Z,28.90
2017-08-03T17:41:02.598Z,28.80
2017-08-03T17:43:29.023Z,28.80
2017-08-03T17:45:55.373Z,28.60
2017-08-03T17:48:21.711Z,28.40
2017-08-03T17:50:48.649Z,28.40
2017-08-03T17:53:14.997Z,28.40
2017-08-03T17:55:42.727Z,28.20
2017-08-03T17:58:09.080Z,28.20
2017-08-03T18:00:35.521Z,28.10
2017-08-03T18:03:02.715Z,28.00
2017-08-03T18:05:29.041Z,27.80
2017-08-03T18:07:55.651Z,27.80
2017-08-03T18:10:21.961Z,27.70
2017-08-03T18:12:48.587Z,27.60
2017-08-03T18:15:15.887Z,27.70
2017-08-03T18:17:42.996Z,27.70
2017-08-03T18:20:10.252Z,27.70
2017-08-03T18:22:36.509Z,27.70
2017-08-03T18:25:03.633Z,27.70
2017-08-03T18:27:30.469Z,27.60
2017-08-03T18:29:56.752Z,27.60
2017-08-03T18:32:23.027Z,27.70
2017-08-03T18:34:49.424Z,27.60
2017-08-03T18:37:15.867Z,27.60
2017-08-03T18:39:42.503Z,27.50
2017-08-03T18:42:08.822Z,27.50
2017-08-03T18:44:35.220Z,27.40
2017-08-03T18:47:03.203Z,27.40
2017-08-03T18:49:29.984Z,27.40
2017-08-03T18:51:56.697Z,27.30
2017-08-03T18:54:23.662Z,27.20
2017-08-03T18:56:49.929Z,27.20
2017-08-03T18:59:16.534Z,27.10
2017-08-03T19:01:43.718Z,27.00
2017-08-03T19:04:10.177Z,27.00
2017-08-03T19:06:37.273Z,26.90
2017-08-03T19:09:03.610Z,26.90
2017-08-03T19:11:30.081Z,26.90
2017-08-03T19:13:57.128Z,26.60
2017-08-03T19:16:24.732Z,26.50
2017-08-03T19:18:51.044Z,26.50
2017-08-03T19:21:17.379Z,26.50
2017-08-03T19:23:43.680Z,26.40
2017-08-03T19:26:10.736Z,26.30
2017-08-03T19:28:37.008Z,26.20
2017-08-03T19:31:03.291Z,26.20
2017-08-03T19:33:30.316Z,26.20
2017-08-03T19:35:57.235Z,26.10
2017-08-03T19:38:23.488Z,26.10
2017-08-03T19:40:49.814Z,26.00
2017-08-03T19:43:16.705Z,25.90
2017-08-03T19:45:42.989Z,25.90
2017-08-03T19:48:09.282Z,25.90
2017-08-03T19:50:35.623Z,25.80
2017-08-03T19:53:03.487Z,25.80
2017-08-03T19:55:30.304Z,25.70
2017-08-03T19:57:56.609Z,25.60
2017-08-03T20:00:23.889Z,25.50
2017-08-03T20:02:50.431Z,25.40
2017-08-03T20:05:18.128Z,25.40
2017-08-03T20:07:52.562Z,25.40
2017-08-03T20:10:21.488Z,25.30
2017-08-03T20:12:47.856Z,25.40
2017-08-03T20:15:15.500Z,25.30
2017-08-03T20:17:42.842Z,25.30
2017-08-03T20:20:10.106Z,25.20
2017-08-03T20:22:36.395Z,25.10
2017-08-03T20:25:04.053Z,24.90
2017-08-03T20:27:30.349Z,24.90
2017-08-03T20:29:56.643Z,24.90
2017-08-03T20:32:23.544Z,24.90
2017-08-03T20:34:50.572Z,24.80
2017-08-03T20:37:16.863Z,24.80
2017-08-03T20:39:44.096Z,24.70
2017-08-03T20:42:11.426Z,24.70
2017-08-03T20:44:37.692Z,24.60
2017-08-03T20:47:04.043Z,24.60
2017-08-03T20:49:30.492Z,24.60
2017-08-03T20:51:56.759Z,24.60
2017-08-03T20:54:24.777Z,24.70
2017-08-03T20:56:51.084Z,24.70
2017-08-03T20:59:18.010Z,24.80
2017-08-03T21:01:45.395Z,24.60
2017-08-03T21:04:11.682Z,24.50
2017-08-03T21:06:38.695Z,24.50
2017-08-03T21:09:04.997Z,24.40
2017-08-03T21:11:31.850Z,24.50
2017-08-03T21:13:58.583Z,24.50
2017-08-03T21:16:25.676Z,24.40
2017-08-03T21:18:52.563Z,24.40
2017-08-03T21:21:20.921Z,24.40
2017-08-03T21:23:48.617Z,24.30
2017-08-03T21:26:14.888Z,24.30
2017-08-03T21:28:41.208Z,24.20
2017-08-03T21:31:07.537Z,24.30
2017-08-03T21:33:34.721Z,24.30
2017-08-03T21:36:02.352Z,24.30
2017-08-03T21:38:29.595Z,24.30
2017-08-03T21:40:56.507Z,24.30
2017-08-03T21:43:23.906Z,24.30
2017-08-03T21:45:51.200Z,24.20
2017-08-03T21:48:17.488Z,24.10
2017-08-03T21:50:44.286Z,24.10
2017-08-03T21:53:11.630Z,24.10
2017-08-03T21:55:38.899Z,24.00
2017-08-03T21:58:05.315Z,23.90
2017-08-03T22:00:44.576Z,23.80
2017-08-03T22:03:10.830Z,23.80
2017-08-03T22:05:38.142Z,23.90
2017-08-03T22:08:04.454Z,24.00
2017-08-03T22:10:30.712Z,24.00
2017-08-03T22:12:56.977Z,24.00
2017-08-03T22:15:23.271Z,23.90
2017-08-03T22:17:50.552Z,23.90
2017-08-03T22:20:17.795Z,23.90
2017-08-03T22:22:44.230Z,23.80
2017-08-03T22:25:11.057Z,23.80
2017-08-03T22:27:38.272Z,23.80
2017-08-03T22:30:04.549Z,23.80
2017-08-03T22:32:30.838Z,23.80
2017-08-03T22:34:57.254Z,23.80
2017-08-03T22:37:24.892Z,23.80
2017-08-03T22:39:51.735Z,23.80
2017-08-03T22:42:18.765Z,23.80
2017-08-03T22:44:45.646Z,23.70
2017-08-03T22:47:12.932Z,23.80
2017-08-03T22:49:39.188Z,23.80
2017-08-03T22:52:06.046Z,23.80
2017-08-03T22:54:32.315Z,23.70
2017-08-03T22:56:59.133Z,23.80
2017-08-03T22:59:25.651Z,23.70
2017-08-03T23:01:53.082Z,23.70
2017-08-03T23:04:19.938Z,23.70
2017-08-03T23:06:46.594Z,23.70
2017-08-03T23:09:13.821Z,23.70
2017-08-03T23:11:40.110Z,23.70
2017-08-03T23:14:06.394Z,23.70
2017-08-03T23:16:32.961Z,23.60
2017-08-03T23:19:00.218Z,23.60
2017-08-03T23:21:27.134Z,23.60
2017-08-03T23:23:54.007Z,23.60
2017-08-03T23:26:20.263Z,23.60
2017-08-03T23:28:47.538Z,23.60
2017-08-03T23:31:14.352Z,23.40
2017-08-03T23:33:40.957Z,23.40
2017-08-03T23:36:08.359Z,23.40
2017-08-03T23:38:36.349Z,23.40
2017-08-03T23:41:02.633Z,23.40
2017-08-03T23:43:28.954Z,23.30
2017-08-03T23:45:56.162Z,23.30
2017-08-03T23:48:22.424Z,23.10
2017-08-03T23:50:48.703Z,23.10
2017-08-03T23:53:14.979Z,23.20
2017-08-03T23:55:42.310Z,23.20
2017-08-03T23:58:09.999Z,23.20
